South Middleton, Pennsylvania
Current Conditions -  °F | °C
As of 2:56 AM on Thursday 18 Dec 2014 (Local Time) from KCXY Reporting Station
Overcast Overcast  
Wind Chill: 27°   Ceiling: 4300
Heat Index: 36°   Visibility: 10mi
Dew Point: 20°   Wind: 14mph
Humidity: 52%   Direction: 300°WNW
Pressure: 30.06"   Gusts: 24mph
Location:  40.1478°N, 77.1164°W
Report Text: KCXY 180756Z AUTO 30012G21KT 10SM OVC043 02/M07 A3006 RMK AO2 SLP182 T00221067
Loading
Personal Weather Stations






























Interactive Weather Map New forecast layout! Learn more

10-Day Weather Forecast

Advertisements
Track Severe Weather on mobile